Time;durP1;ratioP1;P1;durP2;ratioP2;P2;SDS_P1;SDS_P2;PMS_P1;PMS_P2;Temp;Humidity;BMP_temperature;BMP_pressure;BME280_temperature;BME280_humidity;BME280_pressure;Samples;Min_cycle;Max_cycle;Signal;HPM_P1;HPM_P2
2023/08/01 00:02:20;;;;;;;11.30;3.22;;;17.10;99.90;;;;;;5071896;28;20098;-74
2023/08/01 00:04:46;;;;;;;11.25;3.90;;;16.90;99.90;;;;;;5037368;28;20036;-74
2023/08/01 00:07:11;;;;;;;10.50;3.33;;;17.00;99.90;;;;;;5071663;28;20115;-74
2023/08/01 00:09:37;;;;;;;9.70;3.22;;;16.90;99.90;;;;;;5053814;28;20047;-74
2023/08/01 00:12:02;;;;;;;9.48;3.92;;;16.80;99.90;;;;;;5071922;28;20443;-74
2023/08/01 00:14:28;;;;;;;12.55;3.38;;;16.80;99.90;;;;;;5071918;28;20090;-74
2023/08/01 00:16:54;;;;;;;12.35;3.72;;;17.00;99.90;;;;;;5053740;28;20538;-74
2023/08/01 00:19:19;;;;;;;13.02;3.58;;;16.90;99.90;;;;;;5053600;28;20381;-74
2023/08/01 00:21:45;;;;;;;13.35;3.85;;;17.00;99.90;;;;;;5053735;28;20037;-74
2023/08/01 00:24:11;;;;;;;15.85;4.43;;;16.80;99.90;;;;;;5053777;28;20068;-74
2023/08/01 00:26:36;;;;;;;11.77;3.40;;;17.00;99.90;;;;;;5071479;28;20567;-74
2023/08/01 00:29:02;;;;;;;10.77;3.47;;;17.00;99.90;;;;;;5071432;28;20047;-74
2023/08/01 00:31:27;;;;;;;13.75;4.55;;;16.90;99.90;;;;;;5071502;28;20415;-74
2023/08/01 00:33:53;;;;;;;11.73;4.93;;;16.70;99.90;;;;;;5053586;28;20124;-74
2023/08/01 00:36:18;;;;;;;9.98;4.00;;;17.00;99.90;;;;;;5071595;28;20457;-74
2023/08/01 00:38:45;;;;;;;12.93;4.18;;;16.90;99.90;;;;;;5071268;28;20048;-74
2023/08/01 00:41:11;;;;;;;11.73;4.32;;;16.70;99.90;;;;;;5071516;28;20078;-74
2023/08/01 00:43:36;;;;;;;11.70;4.10;;;16.80;99.90;;;;;;5071567;28;20118;-74
2023/08/01 00:46:05;;;;;;;15.48;4.18;;;16.70;99.90;;;;;;5071365;28;20515;-74
2023/08/01 00:48:31;;;;;;;11.60;3.65;;;16.90;99.90;;;;;;5071352;28;20044;-73
2023/08/01 00:51:03;;;;;;;8.95;4.30;;;16.80;99.90;;;;;;5053730;28;20518;-74
2023/08/01 00:53:30;;;;;;;10.20;3.73;;;16.70;99.90;;;;;;5071480;28;20503;-74
2023/08/01 00:55:56;;;;;;;8.48;3.85;;;16.70;99.90;;;;;;5071566;28;20115;-74
2023/08/01 00:58:22;;;;;;;10.52;3.20;;;16.70;99.90;;;;;;5071047;28;20044;-74
2023/08/01 01:00:48;;;;;;;11.15;3.17;;;16.50;99.90;;;;;;5053616;28;20063;-74
2023/08/01 01:03:14;;;;;;;5.50;3.30;;;16.50;99.90;;;;;;5071474;28;20539;-74
2023/08/01 01:05:44;;;;;;;9.02;3.35;;;16.50;99.90;;;;;;5071207;28;20037;-74
2023/08/01 01:08:10;;;;;;;5.80;3.75;;;16.60;99.90;;;;;;5070803;28;20508;-74
2023/08/01 01:10:36;;;;;;;7.65;3.20;;;16.40;99.90;;;;;;5053308;28;20059;-74
2023/08/01 01:13:01;;;;;;;9.00;3.78;;;16.40;99.90;;;;;;5071129;28;20039;-74
2023/08/01 01:15:27;;;;;;;7.13;3.30;;;16.50;99.90;;;;;;5053260;28;20040;-74
2023/08/01 01:17:53;;;;;;;7.13;3.35;;;16.50;99.90;;;;;;5071112;28;20036;-74
2023/08/01 01:20:26;;;;;;;7.15;3.20;;;16.30;99.90;;;;;;5053173;28;20048;-74
2023/08/01 01:22:54;;;;;;;7.53;3.67;;;16.30;99.90;;;;;;5071483;28;20036;-74
2023/08/01 01:25:21;;;;;;;5.60;3.60;;;16.40;99.90;;;;;;5071261;28;20559;-74
2023/08/01 01:27:49;;;;;;;10.70;3.25;;;16.20;99.90;;;;;;5052961;28;20044;-74
2023/08/01 01:30:15;;;;;;;6.40;3.35;;;16.40;99.90;;;;;;5053035;28;20037;-74
2023/08/01 01:32:41;;;;;;;6.65;3.47;;;16.40;99.90;;;;;;5071236;28;20051;-74
2023/08/01 01:35:07;;;;;;;7.68;3.70;;;16.20;99.90;;;;;;5071072;28;20033;-74
2023/08/01 01:37:33;;;;;;;8.15;3.75;;;16.40;99.90;;;;;;5053774;28;20041;-74
2023/08/01 01:39:58;;;;;;;9.60;3.20;;;16.30;99.90;;;;;;5056585;28;20389;-74
2023/08/01 01:42:24;;;;;;;7.88;3.33;;;16.40;99.90;;;;;;5074461;28;20056;-74
2023/08/01 01:44:49;;;;;;;5.20;3.17;;;16.40;99.90;;;;;;5074726;28;20082;-74
2023/08/01 01:47:15;;;;;;;8.35;3.88;;;16.20;99.90;;;;;;5056338;28;20047;-74
2023/08/01 01:49:40;;;;;;;12.13;3.75;;;16.30;99.90;;;;;;5074468;28;20032;-74
2023/08/01 01:52:06;;;;;;;11.15;4.15;;;16.20;99.90;;;;;;5074522;28;20747;-74
2023/08/01 01:54:32;;;;;;;11.60;3.50;;;16.30;99.90;;;;;;5074417;28;20404;-74
2023/08/01 01:56:57;;;;;;;7.45;3.40;;;16.30;99.90;;;;;;5056045;28;20131;-74
2023/08/01 01:59:23;;;;;;;5.53;2.88;;;16.10;99.90;;;;;;5056533;28;20032;-74
2023/08/01 02:01:48;;;;;;;10.00;3.15;;;16.20;99.90;;;;;;5074465;28;20032;-74
2023/08/01 02:04:14;;;;;;;11.77;3.17;;;16.40;99.90;;;;;;5074346;28;20091;-74
2023/08/01 02:06:39;;;;;;;8.55;3.65;;;16.20;99.90;;;;;;5073708;28;20040;-74
2023/08/01 02:09:05;;;;;;;6.53;2.95;;;16.40;99.90;;;;;;5056023;28;20068;-74
2023/08/01 02:11:31;;;;;;;8.18;3.83;;;16.20;99.90;;;;;;5056091;28;20119;-74
2023/08/01 02:13:57;;;;;;;7.40;3.40;;;16.20;99.90;;;;;;5074198;28;20060;-74
2023/08/01 02:16:22;;;;;;;8.60;3.50;;;16.20;99.90;;;;;;5056181;28;20044;-74
2023/08/01 02:18:48;;;;;;;9.30;3.50;;;16.20;99.90;;;;;;5072515;28;20036;-74
2023/08/01 02:21:13;;;;;;;8.70;2.78;;;16.30;99.90;;;;;;5073626;28;20036;-74
2023/08/01 02:23:39;;;;;;;9.55;3.38;;;16.20;99.90;;;;;;5073655;28;20492;-74
2023/08/01 02:26:04;;;;;;;6.47;3.55;;;16.10;99.90;;;;;;5073488;28;20458;-74
2023/08/01 02:28:30;;;;;;;9.95;3.20;;;16.20;99.90;;;;;;5073476;28;20237;-74
2023/08/01 02:30:56;;;;;;;7.28;3.13;;;16.20;99.90;;;;;;5073584;28;20439;-74
2023/08/01 02:33:22;;;;;;;8.65;3.38;;;16.10;99.90;;;;;;5073455;28;20116;-74
2023/08/01 02:35:47;;;;;;;5.82;2.65;;;16.20;99.90;;;;;;5073548;28;20557;-74
2023/08/01 02:38:13;;;;;;;6.00;3.13;;;16.10;99.90;;;;;;5073085;28;20032;-74
2023/08/01 02:40:40;;;;;;;8.10;3.08;;;15.90;99.90;;;;;;5095302;22;20056;-76
2023/08/01 02:43:05;;;;;;;7.97;3.05;;;16.10;99.90;;;;;;5055311;28;20036;-76
2023/08/01 02:45:31;;;;;;;10.77;3.60;;;15.90;99.90;;;;;;5038694;28;20037;-76
2023/08/01 02:47:56;;;;;;;8.05;3.30;;;15.90;99.90;;;;;;5054879;28;20040;-76
2023/08/01 02:50:22;;;;;;;6.70;3.08;;;16.00;99.90;;;;;;5054918;28;20047;-76
2023/08/01 02:52:48;;;;;;;5.90;3.30;;;15.80;99.90;;;;;;5055569;28;20039;-76
2023/08/01 02:55:13;;;;;;;7.10;3.22;;;15.80;99.90;;;;;;5038505;28;20594;-76
2023/08/01 02:57:39;;;;;;;8.23;3.30;;;15.80;99.90;;;;;;5054828;28;20439;-76
2023/08/01 03:00:05;;;;;;;7.72;3.50;;;16.00;99.90;;;;;;5054866;28;20093;-76
2023/08/01 03:02:32;;;;;;;7.72;3.00;;;15.70;99.90;;;;;;5055164;28;20048;-76
2023/08/01 03:04:57;;;;;;;13.60;4.05;;;15.80;99.90;;;;;;5055017;28;20051;-76
2023/08/01 03:07:23;;;;;;;10.55;3.75;;;15.70;99.90;;;;;;5054624;28;20119;-76
2023/08/01 03:09:49;;;;;;;6.65;3.80;;;15.70;99.90;;;;;;5054794;28;20047;-76
2023/08/01 03:12:14;;;;;;;5.30;3.60;;;15.90;99.90;;;;;;5038317;28;20044;-76
2023/08/01 03:14:43;;;;;;;9.43;3.55;;;15.70;99.90;;;;;;5054875;28;20071;-76
2023/08/01 03:17:08;;;;;;;8.82;4.18;;;15.70;99.90;;;;;;5054760;28;20071;-77
2023/08/01 03:19:34;;;;;;;10.00;3.95;;;15.70;99.90;;;;;;5054680;28;20496;-76
2023/08/01 03:22:00;;;;;;;8.43;3.72;;;15.80;99.90;;;;;;5054570;28;20033;-76
2023/08/01 03:24:26;;;;;;;7.43;3.92;;;15.90;99.90;;;;;;5054636;28;20055;-75
2023/08/01 03:26:51;;;;;;;6.72;3.72;;;15.80;99.90;;;;;;5054396;28;20415;-76
2023/08/01 03:29:17;;;;;;;10.15;4.28;;;15.70;99.90;;;;;;5054429;28;20178;-76
2023/08/01 03:31:42;;;;;;;10.45;4.53;;;15.70;99.90;;;;;;5054556;28;20032;-76
2023/08/01 03:34:08;;;;;;;8.27;4.10;;;15.70;99.90;;;;;;5054788;28;20097;-76
2023/08/01 03:36:34;;;;;;;10.80;4.40;;;15.90;99.90;;;;;;5037795;28;20479;-76
2023/08/01 03:39:00;;;;;;;8.27;4.30;;;15.70;99.90;;;;;;5054005;28;20036;-76
2023/08/01 03:41:26;;;;;;;8.40;4.05;;;15.70;99.90;;;;;;5037857;28;20044;-76
2023/08/01 03:43:51;;;;;;;9.55;4.72;;;15.70;99.90;;;;;;5054632;28;20483;-76
2023/08/01 03:46:17;;;;;;;9.52;3.90;;;15.90;99.90;;;;;;5037536;28;20037;-76
2023/08/01 03:48:43;;;;;;;18.13;5.60;;;15.80;99.90;;;;;;5037414;28;20036;-76
2023/08/01 03:51:08;;;;;;;15.15;5.35;;;15.70;99.90;;;;;;5054183;28;20036;-75
2023/08/01 03:53:34;;;;;;;17.27;5.55;;;15.90;99.90;;;;;;5054391;28;20039;-75
2023/08/01 03:56:00;;;;;;;9.30;4.88;;;15.90;99.90;;;;;;5054591;28;20058;-76
2023/08/01 03:58:25;;;;;;;11.07;5.07;;;15.80;99.90;;;;;;5053716;28;20495;-76
2023/08/01 04:00:51;;;;;;;13.05;5.15;;;16.00;99.90;;;;;;5037036;28;20464;-76
2023/08/01 04:03:16;;;;;;;11.65;4.90;;;15.70;99.90;;;;;;5054085;28;20044;-76
2023/08/01 04:05:42;;;;;;;19.35;5.63;;;15.70;99.90;;;;;;5053430;28;20040;-76
2023/08/01 04:08:08;;;;;;;13.35;5.40;;;16.00;99.90;;;;;;5053196;28;20058;-76
2023/08/01 04:10:34;;;;;;;17.48;5.22;;;15.70;99.90;;;;;;5053680;28;20127;-76
2023/08/01 04:12:59;;;;;;;13.23;4.43;;;15.70;99.90;;;;;;5053788;28;20075;-76
2023/08/01 04:15:25;;;;;;;17.98;6.22;;;15.70;99.90;;;;;;5053365;28;20089;-76
2023/08/01 04:17:50;;;;;;;13.80;4.90;;;15.80;99.90;;;;;;5053290;28;20415;-76
2023/08/01 04:20:16;;;;;;;11.43;5.15;;;16.00;99.90;;;;;;5053618;28;20036;-76
2023/08/01 04:22:41;;;;;;;15.15;4.40;;;15.70;99.90;;;;;;5053314;28;20174;-76
2023/08/01 04:25:07;;;;;;;7.22;4.22;;;15.80;99.90;;;;;;5053492;28;20249;-76
2023/08/01 04:27:33;;;;;;;8.35;4.10;;;15.70;99.90;;;;;;5053000;28;20037;-76
2023/08/01 04:29:59;;;;;;;10.30;4.15;;;15.70;99.90;;;;;;5053625;28;20044;-75
2023/08/01 04:32:24;;;;;;;10.70;3.83;;;15.90;99.90;;;;;;5053485;28;20043;-76
2023/08/01 04:34:50;;;;;;;9.20;3.30;;;15.60;99.90;;;;;;5053405;28;20042;-75
2023/08/01 04:37:15;;;;;;;12.85;3.92;;;15.90;99.90;;;;;;5053387;28;20051;-76
2023/08/01 04:39:41;;;;;;;11.82;3.10;;;15.70;99.90;;;;;;5053220;28;20048;-75
2023/08/01 04:42:06;;;;;;;6.30;2.97;;;15.80;99.90;;;;;;5053386;28;20039;-75
2023/08/01 04:44:32;;;;;;;12.77;4.15;;;15.70;99.90;;;;;;5036701;28;20469;-75
2023/08/01 04:46:58;;;;;;;10.80;3.45;;;15.90;99.90;;;;;;5053077;28;20072;-76
2023/08/01 04:49:26;;;;;;;6.93;2.47;;;15.80;99.90;;;;;;5036805;28;20072;-75
2023/08/01 04:51:52;;;;;;;8.65;2.83;;;15.70;99.90;;;;;;5053172;28;20078;-75
2023/08/01 04:54:18;;;;;;;9.63;3.42;;;15.90;99.90;;;;;;5053379;28;20067;-75
2023/08/01 04:56:43;;;;;;;12.20;3.05;;;15.70;99.90;;;;;;5052689;28;20031;-76
2023/08/01 04:59:09;;;;;;;8.40;3.38;;;15.90;99.90;;;;;;5052981;28;20048;-75
2023/08/01 05:01:34;;;;;;;12.00;3.35;;;15.90;99.90;;;;;;5052490;28;20080;-76
2023/08/01 05:04:00;;;;;;;8.77;2.97;;;15.70;99.90;;;;;;5052831;28;20032;-76
2023/08/01 05:06:27;;;;;;;6.38;2.53;;;15.60;99.90;;;;;;5052724;28;20044;-76
2023/08/01 05:08:53;;;;;;;7.63;2.33;;;15.70;99.90;;;;;;5035876;28;20037;-75
2023/08/01 05:11:18;;;;;;;6.60;2.17;;;15.80;99.90;;;;;;5053143;28;20052;-76
2023/08/01 05:13:44;;;;;;;8.10;1.90;;;15.70;99.90;;;;;;5055742;28;20047;-76
2023/08/01 05:16:09;;;;;;;8.57;2.28;;;15.60;99.90;;;;;;5039974;28;20036;-76
2023/08/01 05:18:35;;;;;;;4.80;1.88;;;15.60;99.90;;;;;;5056502;28;20047;-76
2023/08/01 05:21:00;;;;;;;7.72;1.60;;;15.80;99.90;;;;;;5039960;28;20044;-76
2023/08/01 05:23:26;;;;;;;6.22;2.00;;;15.80;99.90;;;;;;5056827;28;20040;-76
2023/08/01 05:25:52;;;;;;;5.65;1.60;;;15.90;99.90;;;;;;5040316;28;20064;-76
2023/08/01 05:28:17;;;;;;;4.47;1.67;;;16.20;99.90;;;;;;5056264;28;20075;-76
2023/08/01 05:30:43;;;;;;;5.47;2.15;;;16.30;99.90;;;;;;5056535;28;20028;-76
2023/08/01 05:33:08;;;;;;;5.75;1.83;;;16.20;99.90;;;;;;5056386;28;20041;-76
2023/08/01 05:35:34;;;;;;;4.60;1.52;;;16.20;99.90;;;;;;5056467;28;20044;-76
2023/08/01 05:38:00;;;;;;;5.63;1.85;;;16.20;99.90;;;;;;5056279;28;20040;-75
2023/08/01 05:40:25;;;;;;;6.05;1.70;;;16.10;99.90;;;;;;5056152;28;20438;-76
2023/08/01 05:42:51;;;;;;;5.70;1.65;;;15.90;99.90;;;;;;5039569;28;20094;-75
2023/08/01 05:45:16;;;;;;;3.47;1.75;;;16.00;99.90;;;;;;5056147;28;20102;-75
2023/08/01 05:47:42;;;;;;;4.93;1.40;;;15.90;99.90;;;;;;5055900;28;20094;-75
2023/08/01 05:50:08;;;;;;;2.80;1.40;;;15.90;99.90;;;;;;5055949;28;20039;-76
2023/08/01 05:52:34;;;;;;;5.70;1.73;;;15.70;99.90;;;;;;5056116;28;20093;-76
2023/08/01 05:55:00;;;;;;;5.13;1.70;;;15.70;99.90;;;;;;5039239;28;20072;-75
2023/08/01 05:57:25;;;;;;;4.05;1.50;;;15.90;99.90;;;;;;5055711;28;20068;-76
2023/08/01 05:59:51;;;;;;;5.03;1.92;;;15.90;99.90;;;;;;5038708;28;20029;-75
2023/08/01 06:02:16;;;;;;;7.80;1.88;;;16.00;99.90;;;;;;5054820;28;20037;-75
2023/08/01 06:04:42;;;;;;;5.03;2.05;;;15.90;99.90;;;;;;5055885;28;20033;-75
2023/08/01 06:07:08;;;;;;;5.40;2.10;;;15.90;99.90;;;;;;5073324;28;20048;-76
2023/08/01 06:09:33;;;;;;;6.53;1.90;;;15.80;99.90;;;;;;5055499;28;20492;-76
2023/08/01 06:11:59;;;;;;;6.75;1.30;;;15.80;99.90;;;;;;5038909;28;20048;-76
2023/08/01 06:14:25;;;;;;;5.82;2.05;;;15.90;99.90;;;;;;5055145;28;20123;-76
2023/08/01 06:16:50;;;;;;;5.32;2.00;;;16.30;99.90;;;;;;5055257;28;20044;-75
2023/08/01 06:19:16;;;;;;;4.47;1.85;;;16.50;99.90;;;;;;5072972;28;20040;-76
2023/08/01 06:21:41;;;;;;;6.75;1.50;;;16.50;99.90;;;;;;5055645;28;20075;-74
2023/08/01 06:24:08;;;;;;;3.55;1.50;;;16.40;99.90;;;;;;5054913;28;20033;-74
2023/08/01 06:26:35;;;;;;;5.03;1.55;;;16.20;99.90;;;;;;5038756;28;20044;-74
2023/08/01 06:29:00;;;;;;;4.72;1.42;;;16.10;99.90;;;;;;5055013;28;20083;-73
2023/08/01 06:31:26;;;;;;;3.95;1.55;;;16.30;99.90;;;;;;5055218;28;20072;-73
2023/08/01 06:33:51;;;;;;;3.17;1.65;;;16.00;99.90;;;;;;5055517;28;20105;-74
2023/08/01 06:36:17;;;;;;;5.15;2.53;;;16.10;99.90;;;;;;5055375;28;20088;-74
2023/08/01 06:38:43;;;;;;;5.70;1.85;;;16.20;99.90;;;;;;5072818;28;20048;-74
2023/08/01 06:41:09;;;;;;;4.65;1.70;;;16.10;99.90;;;;;;5055199;28;20044;-74
2023/08/01 06:43:38;;;;;;;4.35;1.70;;;15.90;99.90;;;;;;5054987;28;20457;-73
2023/08/01 06:46:03;;;;;;;5.32;1.58;;;16.00;99.90;;;;;;5072924;28;20511;-74
2023/08/01 06:48:29;;;;;;;4.07;2.05;;;15.90;99.90;;;;;;5054511;28;20040;-73
2023/08/01 06:50:55;;;;;;;5.07;1.75;;;16.00;99.90;;;;;;5055680;28;20042;-73
2023/08/01 06:53:21;;;;;;;8.77;1.70;;;15.70;99.90;;;;;;5054862;28;20040;-73
2023/08/01 06:55:46;;;;;;;4.35;2.05;;;15.90;99.90;;;;;;5055031;28;20047;-73
2023/08/01 06:58:12;;;;;;;6.03;2.30;;;15.80;99.90;;;;;;5054495;28;20040;-73
2023/08/01 07:00:37;;;;;;;5.53;2.10;;;15.90;99.90;;;;;;5065768;28;20040;-73
2023/08/01 07:03:03;;;;;;;5.63;2.40;;;15.80;99.90;;;;;;5052020;28;20128;-73
2023/08/01 07:05:29;;;;;;;7.22;2.35;;;15.90;99.90;;;;;;5031786;28;20040;-73
2023/08/01 07:07:54;;;;;;;8.60;2.88;;;16.10;99.90;;;;;;5044716;28;20039;-74
2023/08/01 07:10:20;;;;;;;6.63;3.13;;;16.20;99.90;;;;;;5034656;28;20039;-73
2023/08/01 07:12:46;;;;;;;6.80;2.38;;;16.10;99.90;;;;;;5052540;28;20099;-74
2023/08/01 07:15:11;;;;;;;5.63;2.05;;;16.20;99.90;;;;;;5034463;28;20041;-74
2023/08/01 07:17:37;;;;;;;7.22;2.65;;;16.30;99.90;;;;;;5036625;28;20040;-74
2023/08/01 07:20:02;;;;;;;5.20;2.30;;;16.10;99.90;;;;;;5044218;28;20119;-73
2023/08/01 07:22:28;;;;;;;6.40;2.50;;;16.20;99.90;;;;;;5042605;28;20111;-73
2023/08/01 07:24:54;;;;;;;4.63;2.35;;;16.40;99.90;;;;;;5042808;28;20041;-73
2023/08/01 07:27:20;;;;;;;6.18;2.75;;;16.20;99.90;;;;;;5050854;28;20045;-74
2023/08/01 07:29:46;;;;;;;6.38;2.30;;;16.20;99.90;;;;;;5044011;28;20120;-73
2023/08/01 07:32:11;;;;;;;7.25;2.33;;;16.20;99.90;;;;;;5044620;28;20081;-73
2023/08/01 07:34:37;;;;;;;5.15;2.33;;;16.40;99.90;;;;;;5048814;28;20032;-74
2023/08/01 07:37:03;;;;;;;5.18;1.55;;;16.20;99.90;;;;;;5053360;28;20033;-73
2023/08/01 07:39:28;;;;;;;4.07;1.92;;;16.30;99.90;;;;;;5051707;28;20163;-73
2023/08/01 07:41:56;;;;;;;3.60;1.33;;;16.40;99.90;;;;;;5051148;28;20033;-73
2023/08/01 07:44:21;;;;;;;5.07;1.88;;;16.20;99.90;;;;;;5058614;28;20040;-74
2023/08/01 07:46:47;;;;;;;7.95;2.40;;;16.20;99.90;;;;;;5037930;28;20166;-73
2023/08/01 07:49:12;;;;;;;6.75;1.88;;;16.50;99.90;;;;;;5067170;28;20028;-74
2023/08/01 07:51:38;;;;;;;6.13;1.90;;;16.50;99.90;;;;;;5062150;28;20083;-74
2023/08/01 07:54:04;;;;;;;9.93;1.80;;;16.30;99.90;;;;;;5053998;28;20477;-73
2023/08/01 07:56:29;;;;;;;4.53;2.17;;;16.40;99.90;;;;;;5070406;28;20037;-73
2023/08/01 07:58:55;;;;;;;6.50;1.75;;;16.50;99.90;;;;;;5070051;28;20036;-74
2023/08/01 08:01:20;;;;;;;9.15;2.65;;;16.30;99.90;;;;;;5070389;28;20041;-73
2023/08/01 08:03:46;;;;;;;8.65;1.73;;;16.30;99.90;;;;;;5070174;28;20534;-74
2023/08/01 08:06:12;;;;;;;6.32;2.00;;;16.20;99.90;;;;;;5070073;28;20036;-74
2023/08/01 08:08:37;;;;;;;4.57;1.48;;;16.20;99.90;;;;;;5069827;28;20097;-75
2023/08/01 08:11:03;;;;;;;4.05;1.60;;;16.10;99.90;;;;;;5069933;28;20095;-74
2023/08/01 08:13:29;;;;;;;6.65;1.80;;;16.20;99.90;;;;;;5053098;28;20037;-75
2023/08/01 08:15:56;;;;;;;6.95;1.60;;;16.10;99.90;;;;;;5044180;28;20091;-75
2023/08/01 08:18:22;;;;;;;3.10;1.58;;;16.10;99.90;;;;;;5023694;28;20045;-74
2023/08/01 08:20:48;;;;;;;3.00;1.40;;;16.20;99.90;;;;;;5017062;28;20041;-75
2023/08/01 08:23:16;;;;;;;8.70;2.17;;;16.00;99.90;;;;;;5017065;28;20497;-75
2023/08/01 08:25:46;;;;;;;12.02;2.08;;;16.40;99.90;;;;;;5033395;28;20415;-74
2023/08/01 08:28:13;;;;;;;101.50;29.77;;;16.50;99.90;;;;;;5032975;28;20052;-74
2023/08/01 08:30:39;;;;;;;3.70;1.95;;;16.60;99.90;;;;;;5033252;28;20455;-74
2023/08/01 08:33:06;;;;;;;4.00;1.70;;;16.70;99.90;;;;;;5033211;28;20044;-74
2023/08/01 08:35:35;;;;;;;5.85;2.05;;;16.60;99.90;;;;;;5033057;28;20056;-74
2023/08/01 08:38:03;;;;;;;4.50;1.58;;;16.60;99.90;;;;;;5032861;28;20037;-74
2023/08/01 08:40:32;;;;;;;9.18;2.08;;;16.60;99.90;;;;;;5070032;23;20078;-74
2023/08/01 08:43:01;;;;;;;3.35;1.60;;;16.40;99.90;;;;;;5071095;28;20070;-74
2023/08/01 08:45:29;;;;;;;9.40;2.80;;;16.40;99.90;;;;;;5071302;28;20043;-74
2023/08/01 08:47:57;;;;;;;6.22;1.63;;;16.50;99.90;;;;;;5074318;28;20098;-74
2023/08/01 08:50:24;;;;;;;3.92;1.77;;;16.30;99.90;;;;;;5075158;28;20032;-75
2023/08/01 08:52:50;;;;;;;4.95;1.40;;;16.10;99.90;;;;;;5057293;28;20075;-74
2023/08/01 08:55:17;;;;;;;6.38;1.67;;;16.10;99.90;;;;;;5074960;28;20036;-75
2023/08/01 08:57:44;;;;;;;3.78;1.92;;;16.10;99.90;;;;;;5074688;28;20131;-74
2023/08/01 09:00:11;;;;;;;10.75;1.90;;;16.30;99.90;;;;;;5057035;28;20405;-74
2023/08/01 09:02:36;;;;;;;5.60;2.00;;;16.70;99.90;;;;;;5057357;28;20044;-73
2023/08/01 09:05:02;;;;;;;4.68;1.30;;;16.40;99.90;;;;;;5075058;28;20060;-73
2023/08/01 09:07:32;;;;;;;7.00;2.38;;;16.40;99.90;;;;;;5074597;28;20044;-73
2023/08/01 09:09:57;;;;;;;4.82;1.80;;;16.50;99.90;;;;;;5074749;28;20044;-72
2023/08/01 09:12:23;;;;;;;3.05;1.55;;;16.50;99.90;;;;;;5056842;28;20032;-72
2023/08/01 09:14:50;;;;;;;3.50;2.33;;;16.30;99.90;;;;;;5056858;28;20102;-73
2023/08/01 09:17:18;;;;;;;4.82;1.70;;;16.70;99.90;;;;;;5071870;28;20036;-72
2023/08/01 09:19:44;;;;;;;5.70;1.77;;;16.60;99.90;;;;;;5050108;28;20576;-73
2023/08/01 09:22:11;;;;;;;7.03;2.60;;;17.00;99.90;;;;;;5068157;28;20060;-73
2023/08/01 09:24:37;;;;;;;5.90;1.88;;;17.10;99.90;;;;;;5053834;28;20058;-73
2023/08/01 09:27:04;;;;;;;4.57;2.10;;;16.90;99.90;;;;;;5074221;28;20037;-73
2023/08/01 09:29:31;;;;;;;7.88;1.80;;;17.10;99.90;;;;;;5074519;28;20430;-74
2023/08/01 09:31:57;;;;;;;7.55;2.05;;;17.00;99.90;;;;;;5074503;28;20094;-74
2023/08/01 09:34:24;;;;;;;4.05;1.85;;;17.10;99.90;;;;;;5056370;28;20454;-73
2023/08/01 09:36:50;;;;;;;4.63;2.00;;;17.00;99.90;;;;;;5056379;28;20554;-74
2023/08/01 09:39:17;;;;;;;3.60;1.50;;;16.80;99.90;;;;;;5039723;28;20048;-74
2023/08/01 09:41:43;;;;;;;4.72;1.75;;;16.90;99.90;;;;;;5056326;28;20055;-74
2023/08/01 09:44:15;;;;;;;5.53;1.67;;;17.00;99.90;;;;;;5039763;28;20419;-74
2023/08/01 09:46:42;;;;;;;3.88;1.60;;;17.00;99.90;;;;;;5070638;28;20048;-73
2023/08/01 09:49:12;;;;;;;4.88;1.67;;;17.10;99.90;;;;;;5073988;28;20052;-74
2023/08/01 09:51:50;;;;;;;5.68;2.03;;;17.30;99.90;;;;;;5074000;28;20523;-73
2023/08/01 09:54:17;;;;;;;5.38;1.60;;;17.30;99.90;;;;;;5074127;28;20036;-75
2023/08/01 09:56:48;;;;;;;5.82;2.35;;;17.30;99.90;;;;;;5073925;28;20518;-78
2023/08/01 09:59:18;;;;;;;5.57;1.95;;;17.50;99.90;;;;;;5055220;28;20074;-75
2023/08/01 10:01:45;;;;;;;3.67;1.55;;;17.50;99.90;;;;;;5055630;28;20403;-73
2023/08/01 10:04:12;;;;;;;4.65;1.73;;;17.40;99.90;;;;;;5062250;28;20059;-73
2023/08/01 10:06:41;;;;;;;6.93;1.88;;;17.20;99.90;;;;;;5062500;28;20036;-73
2023/08/01 10:09:10;;;;;;;4.15;2.00;;;17.20;99.90;;;;;;5044266;28;20041;-74
2023/08/01 10:11:38;;;;;;;4.53;2.10;;;17.40;99.90;;;;;;5036039;28;20059;-73
2023/08/01 10:14:04;;;;;;;5.47;2.03;;;17.60;99.90;;;;;;5036031;28;20065;-73
2023/08/01 10:16:30;;;;;;;3.45;1.60;;;17.40;99.90;;;;;;5035606;28;20068;-73
2023/08/01 10:18:58;;;;;;;4.00;1.58;;;17.20;99.90;;;;;;5070716;28;20512;-74
2023/08/01 10:21:26;;;;;;;3.30;1.60;;;17.30;99.90;;;;;;5073740;28;20195;-73
2023/08/01 10:23:52;;;;;;;4.07;1.23;;;17.10;99.90;;;;;;5038192;28;20120;-74
2023/08/01 10:26:18;;;;;;;8.82;2.67;;;17.20;99.90;;;;;;5064983;28;20037;-74
2023/08/01 10:28:50;;;;;;;8.65;2.17;;;16.80;99.90;;;;;;5060882;28;20516;-74
2023/08/01 10:31:17;;;;;;;7.40;2.33;;;16.80;99.90;;;;;;5053332;28;20037;-74
2023/08/01 10:33:46;;;;;;;9.13;2.03;;;16.80;99.90;;;;;;5053351;28;20400;-74
2023/08/01 10:36:19;;;;;;;8.00;2.50;;;16.80;99.90;;;;;;5053226;28;20121;-74
2023/08/01 10:38:57;;;;;;;4.88;1.95;;;16.70;99.90;;;;;;5034953;28;20123;-74
2023/08/01 10:41:33;;;;;;;3.72;1.73;;;16.60;99.90;;;;;;5035524;28;20052;-73
2023/08/01 10:44:13;;;;;;;4.78;1.77;;;16.50;99.90;;;;;;5053333;28;20048;-74
2023/08/01 10:46:56;;;;;;;6.40;1.92;;;16.70;99.90;;;;;;5037714;28;20032;-73
2023/08/01 10:49:43;;;;;;;3.03;2.00;;;16.50;99.90;;;;;;5052943;28;20048;-73
2023/08/01 10:52:20;;;;;;;4.55;2.35;;;16.50;99.90;;;;;;5052846;28;20095;-74
2023/08/01 10:54:46;;;;;;;9.65;2.88;;;16.80;99.90;;;;;;5038545;28;20037;-74
2023/08/01 10:57:18;;;;;;;5.43;3.08;;;17.00;99.90;;;;;;5050412;28;20049;-74
2023/08/01 10:59:44;;;;;;;7.55;3.92;;;17.00;99.90;;;;;;5060990;28;20044;-73
2023/08/01 11:02:10;;;;;;;10.90;4.18;;;17.60;99.90;;;;;;5035079;28;20083;-73
2023/08/01 11:04:36;;;;;;;14.85;4.85;;;17.80;99.90;;;;;;5052672;28;20064;-73
2023/08/01 11:07:04;;;;;;;9.77;4.00;;;17.90;99.90;;;;;;5052357;28;20037;-73
2023/08/01 11:09:29;;;;;;;8.90;3.90;;;17.90;99.90;;;;;;5033959;28;20047;-73
2023/08/01 11:12:00;;;;;;;7.97;2.97;;;18.00;99.90;;;;;;5034234;28;20120;-74
2023/08/01 11:14:27;;;;;;;7.25;3.05;;;18.10;99.90;;;;;;5052517;28;20037;-73
2023/08/01 11:16:57;;;;;;;6.53;2.28;;;18.10;99.90;;;;;;5034306;28;20119;-73
2023/08/01 11:19:27;;;;;;;7.25;2.95;;;17.90;99.90;;;;;;5034244;28;20123;-73
2023/08/01 11:21:57;;;;;;;7.15;2.05;;;18.10;99.90;;;;;;5052508;28;20467;-73
2023/08/01 11:24:24;;;;;;;4.25;1.95;;;17.90;99.90;;;;;;5052427;28;20100;-74
2023/08/01 11:26:52;;;;;;;6.15;2.30;;;17.90;99.90;;;;;;5034023;28;20040;-74
2023/08/01 11:29:19;;;;;;;9.10;2.42;;;18.20;99.90;;;;;;5034138;28;20095;-73
2023/08/01 11:32:12;;;;;;;6.30;1.60;;;18.20;99.90;;;;;;5034372;28;20037;-74
2023/08/01 11:34:44;;;;;;;4.20;1.52;;;18.20;99.90;;;;;;5048438;28;20536;-74
2023/08/01 11:37:10;;;;;;;4.25;1.63;;;18.30;99.90;;;;;;5051923;28;20437;-73
2023/08/01 11:39:36;;;;;;;9.27;2.58;;;18.30;99.90;;;;;;5060640;28;20063;-74
2023/08/01 11:42:03;;;;;;;4.72;1.80;;;18.40;99.90;;;;;;5060298;28;20044;-73
2023/08/01 11:44:29;;;;;;;4.07;1.77;;;18.30;99.90;;;;;;5063512;28;20036;-73
2023/08/01 11:46:55;;;;;;;5.32;2.15;;;18.30;99.90;;;;;;5061313;28;20047;-73
2023/08/01 11:49:21;;;;;;;8.52;3.67;;;18.20;99.90;;;;;;5057073;28;20416;-74
2023/08/01 11:51:47;;;;;;;3.38;1.40;;;18.30;99.90;;;;;;5059770;28;20025;-73
2023/08/01 11:54:14;;;;;;;2.35;1.35;;;18.20;99.90;;;;;;5062212;28;20036;-73
2023/08/01 11:56:41;;;;;;;4.68;1.00;;;18.00;99.90;;;;;;5061398;28;20036;-73
2023/08/01 11:59:14;;;;;;;7.85;2.00;;;18.10;99.90;;;;;;5042496;28;20051;-74
2023/08/01 12:01:42;;;;;;;4.57;1.80;;;18.10;99.90;;;;;;5066851;28;20089;-74
2023/08/01 12:04:11;;;;;;;1.98;1.05;;;18.30;99.90;;;;;;5063747;28;20036;-74
2023/08/01 12:06:38;;;;;;;5.53;1.90;;;18.20;99.90;;;;;;5037700;28;20571;-75
2023/08/01 12:09:18;;;;;;;6.28;1.27;;;18.30;99.90;;;;;;5028657;28;20055;-73
2023/08/01 12:11:43;;;;;;;4.25;1.25;;;18.30;99.90;;;;;;5062686;28;20040;-73
2023/08/01 12:14:14;;;;;;;8.18;1.40;;;18.30;99.90;;;;;;5060832;28;20041;-73
2023/08/01 12:16:44;;;;;;;3.17;1.00;;;18.50;99.90;;;;;;5059462;28;20497;-73
2023/08/01 12:19:10;;;;;;;4.97;1.20;;;18.50;99.90;;;;;;5060501;28;20041;-73
2023/08/01 12:21:36;;;;;;;4.88;1.40;;;18.60;99.90;;;;;;5061543;28;20033;-73
2023/08/01 12:24:02;;;;;;;4.80;1.17;;;18.50;99.90;;;;;;5043022;28;20143;-73
2023/08/01 12:26:29;;;;;;;3.55;1.20;;;18.30;99.90;;;;;;5037807;28;20083;-73
2023/08/01 12:28:54;;;;;;;6.03;1.25;;;18.20;99.90;;;;;;5033260;28;20048;-73
2023/08/01 12:31:21;;;;;;;4.63;1.38;;;18.20;99.90;;;;;;5051520;28;20029;-73
2023/08/01 12:33:47;;;;;;;4.78;1.50;;;18.30;99.90;;;;;;5051556;28;20080;-73
2023/08/01 12:36:14;;;;;;;8.32;2.42;;;18.30;99.90;;;;;;5033563;28;20095;-73
2023/08/01 12:38:39;;;;;;;9.02;1.80;;;18.40;99.90;;;;;;5033256;28;20041;-73
2023/08/01 12:41:06;;;;;;;5.13;2.10;;;18.40;99.90;;;;;;5051457;28;20060;-73
2023/08/01 12:43:32;;;;;;;5.20;1.67;;;18.50;99.90;;;;;;5017195;28;20489;-73